Historique des mesures à Cassis (13260), France
Quotidien Résumé Octobre 25, 2017 Unités:  Métrique    US   Métrique/US
« Précédent (Jour)
Suivant (Jour) »
Quotidien Hebdomadaire Mensuel Annuel Période au choix
  Maximum: Minimum: Moyenne:
Température: TemperatureC °C 12.9 °C 15.8 °C
Point de rosée: DewpointC °C 2.4 °C 5.9 °C
Humidité: Humidity % 43 % 49 %
Vitesse du vent: 0 km/h 0 km/h 2.4 km/h
Rafales: 0 km/h - -
Vent:- - ENE
Pression: PressurehPa hPa 1018.5 hPa -
Précipitations: 0.0 mm    
Historical Graphs
 
 
Mesures pour : Octobre 25, 2017
Heure Temperature Point de rosée Pression Vent Vitesse du vent Rafales Humidité Pluie (par heure) Conditions
TemperatureC °C DewpointC °C PressurehPa hPa Calm     Humidity % HourlyPrecipMM mm SoftwareType W/m2
00:11 15.6 °C 3.6 °C 1018.8 hPa North 2.3 km/h 4.7 km/h 45 % 0.0 mm open2300-1.11 W/m2
01:11 14.6 °C 2.4 °C 1018.5 hPa NNE 2.9 km/h 2.9 km/h 44 % 0.0 mm open2300-1.11 W/m2
02:11 15.3 °C 2.7 °C 1018.8 hPa Calm   2.3 km/h 43 % 0.0 mm open2300-1.11 W/m2
03:11 14.6 °C 3.4 °C 1019.2 hPa Calm   2.9 km/h 47 % 0.0 mm open2300-1.11 W/m2
04:11 14.3 °C 3.8 °C 1019.2 hPa Calm   2.3 km/h 49 % 0.0 mm open2300-1.11 W/m2
05:11 13.4 °C 3.4 °C 1019.2 hPa NE 2.3 km/h 2.3 km/h 51 % 0.0 mm open2300-1.11 W/m2
06:11 12.9 °C 3.5 °C 1019.2 hPa NNE 4.2 km/h 4.2 km/h 53 % 0.0 mm open2300-1.11 W/m2
07:11 13.9 °C 3.7 °C 1019.2 hPa Calm     50 % 0.0 mm open2300-1.11 W/m2
08:11 13.8 °C 3.3 °C 1019.2 hPa North 4.7 km/h 4.7 km/h 49 % 0.0 mm open2300-1.11 W/m2
09:11 13.9 °C 3.4 °C 1020.2 hPa Calm   2.3 km/h 49 % 0.0 mm open2300-1.11 W/m2
10:11 16.4 °C 4.7 °C 1020.5 hPa Calm   4.2 km/h 46 % 0.0 mm open2300-1.11 W/m2
11:11 17.5 °C 5.0 °C 1020.9 hPa Calm     44 % 0.0 mm open2300-1.11 W/m2
12:11 19.3 °C 7.0 °C 1020.9 hPa SE 4.2 km/h 6.4 km/h 45 % 0.0 mm open2300-1.11 W/m2
13:11 19.6 °C 6.6 °C 1020.9 hPa East 6.9 km/h 6.9 km/h 43 % 0.0 mm open2300-1.11 W/m2
14:11 19.8 °C 7.5 °C 1020.9 hPa South 6.4 km/h 12.7 km/h 45 % 0.0 mm open2300-1.11 W/m2
15:11 19.6 °C 11.1 °C 1020.5 hPa SSE 9.3 km/h 9.3 km/h 58 % 0.0 mm open2300-1.11 W/m2
16:11 19.6 °C 10.6 °C 1020.9 hPa SSW 8.9 km/h 8.9 km/h 56 % 0.0 mm open2300-1.11 W/m2
17:11 19.6 °C 7.6 °C 1020.9 hPa Calm     46 % 0.0 mm open2300-1.11 W/m2
18:11 19.3 °C 9.2 °C 1020.9 hPa SSE 1.8 km/h 5.1 km/h 52 % 0.0 mm open2300-1.11 W/m2
19:11 17.6 °C 9.2 °C 1021.2 hPa NNE 1.8 km/h 1.8 km/h 58 % 0.0 mm open2300-1.11 W/m2
20:11 16.3 °C 9.0 °C 1021.6 hPa Calm   4.2 km/h 62 % 0.0 mm open2300-1.11 W/m2
21:11 15.8 °C 8.8 °C 1021.6 hPa Calm   4.2 km/h 63 % 0.0 mm open2300-1.11 W/m2
22:11 15.5 °C 9.2 °C 1021.9 hPa NNE 1.8 km/h 6.4 km/h 66 % 0.0 mm open2300-1.11 W/m2
23:11 15.6 °C 9.5 °C 1022.2 hPa North 3.4 km/h 3.4 km/h 67 % 0.0 mm open2300-1.11 W/m2
Observations météo à CASSIS
WU-History script by Weather Underground - 1 mb